createdAt,value
2019-01-10T00:00:53.551Z,101584.60
2019-01-10T00:03:23.264Z,101588.45
2019-01-10T00:05:52.824Z,101591.46
2019-01-10T00:08:22.374Z,101594.86
2019-01-10T00:10:51.943Z,101602.56
2019-01-10T00:13:21.490Z,101601.69
2019-01-10T00:15:51.035Z,101604.77
2019-01-10T00:18:20.580Z,101604.77
2019-01-10T00:20:50.223Z,101602.22
2019-01-10T00:23:19.771Z,101607.42
2019-01-10T00:25:49.384Z,101613.42
2019-01-10T00:28:18.970Z,101615.59
2019-01-10T00:30:48.480Z,101623.77
2019-01-10T00:33:18.013Z,101623.27
2019-01-10T00:35:47.568Z,101622.38
2019-01-10T00:38:18.437Z,101621.47
2019-01-10T00:40:48.554Z,101625.75
2019-01-10T00:43:18.083Z,101618.92
2019-01-10T00:45:47.656Z,101620.22
2019-01-10T00:48:17.214Z,101621.02
2019-01-10T00:50:46.753Z,101618.47
2019-01-10T00:53:16.318Z,101624.51
2019-01-10T00:55:45.835Z,101624.08
2019-01-10T00:58:15.402Z,101626.25
2019-01-10T01:00:44.969Z,101627.98
2019-01-10T01:03:14.803Z,101636.56
2019-01-10T01:05:45.875Z,101634.84
2019-01-10T01:08:15.437Z,101636.13
2019-01-10T01:10:45.058Z,101639.50
2019-01-10T01:13:14.628Z,101642.91
2019-01-10T01:15:44.155Z,101637.68
2019-01-10T01:18:13.721Z,101645.79
2019-01-10T01:20:43.510Z,101659.16
2019-01-10T01:23:13.050Z,101652.28
2019-01-10T01:25:43.688Z,101659.59
2019-01-10T01:28:13.318Z,101660.84
2019-01-10T01:30:42.848Z,101655.22
2019-01-10T01:33:12.400Z,101656.59
2019-01-10T01:35:41.963Z,101662.20
2019-01-10T01:38:11.497Z,101667.33
2019-01-10T01:40:41.031Z,101673.34
2019-01-10T01:43:10.657Z,101675.47
2019-01-10T01:45:40.254Z,101678.08
2019-01-10T01:48:09.800Z,101678.50
2019-01-10T01:50:39.440Z,101686.25
2019-01-10T01:53:08.974Z,101688.40
2019-01-10T01:55:38.542Z,101681.11
2019-01-10T01:58:08.096Z,101683.70
2019-01-10T02:00:38.108Z,101686.72
2019-01-10T02:03:07.963Z,101683.72
2019-01-10T02:05:37.553Z,101683.69
2019-01-10T02:08:07.115Z,101684.16
2019-01-10T02:10:36.735Z,101697.04
2019-01-10T02:13:06.301Z,101699.16
2019-01-10T02:15:35.863Z,101698.25
2019-01-10T02:18:05.429Z,101693.94
2019-01-10T02:20:35.020Z,101702.19
2019-01-10T02:23:04.533Z,101706.89
2019-01-10T02:25:34.102Z,101707.29
2019-01-10T02:28:03.659Z,101711.94
2019-01-10T02:30:41.818Z,101711.08
2019-01-10T02:33:04.903Z,101716.67
2019-01-10T02:35:34.811Z,101719.22
2019-01-10T02:38:04.362Z,101712.33
2019-01-10T02:40:33.903Z,101722.63
2019-01-10T02:43:03.441Z,101729.13
2019-01-10T02:45:33.246Z,101725.77
2019-01-10T02:48:03.047Z,101721.92
2019-01-10T02:50:32.794Z,101723.66
2019-01-10T02:53:02.317Z,101721.08
2019-01-10T02:55:31.857Z,101733.38
2019-01-10T02:58:01.400Z,101733.31
2019-01-10T03:00:31.583Z,101727.39
2019-01-10T03:03:01.227Z,101733.41
2019-01-10T03:05:30.935Z,101727.45
2019-01-10T03:08:00.482Z,101725.71
2019-01-10T03:10:30.190Z,101724.42
2019-01-10T03:12:59.727Z,101720.89
2019-01-10T03:15:29.266Z,101723.02
2019-01-10T03:17:58.827Z,101727.73
2019-01-10T03:20:28.360Z,101728.59
2019-01-10T03:22:57.903Z,101724.31
2019-01-10T03:25:27.440Z,101729.88
2019-01-10T03:27:57.003Z,101728.56
2019-01-10T03:30:26.883Z,101727.25
2019-01-10T03:32:56.466Z,101726.47
2019-01-10T03:35:26.991Z,101721.26
2019-01-10T03:37:56.543Z,101723.36
2019-01-10T03:40:26.100Z,101719.61
2019-01-10T03:42:55.647Z,101720.50
2019-01-10T03:45:25.349Z,101724.31
2019-01-10T03:47:55.192Z,101724.28
2019-01-10T03:50:24.687Z,101728.14
2019-01-10T03:52:54.250Z,101731.91
2019-01-10T03:55:23.783Z,101728.47
2019-01-10T03:57:53.339Z,101730.17
2019-01-10T04:00:23.777Z,101733.52
2019-01-10T04:02:53.340Z,101734.42
2019-01-10T04:05:22.894Z,101733.97
2019-01-10T04:07:52.559Z,101738.70
2019-01-10T04:10:22.114Z,101735.30
2019-01-10T04:12:51.781Z,101739.19
2019-01-10T04:15:21.269Z,101738.31
2019-01-10T04:17:50.854Z,101743.95
2019-01-10T04:20:20.468Z,101738.34
2019-01-10T04:22:50.025Z,101740.11
2019-01-10T04:25:19.569Z,101742.33
2019-01-10T04:27:49.135Z,101744.09
2019-01-10T04:30:19.880Z,101746.67
2019-01-10T04:32:49.422Z,101744.55
2019-01-10T04:35:19.052Z,101730.38
2019-01-10T04:37:48.590Z,101743.31
2019-01-10T04:40:19.695Z,101744.03
2019-01-10T04:42:49.231Z,101746.13
2019-01-10T04:45:18.838Z,101751.73
2019-01-10T04:48:37.559Z,101753.05
2019-01-10T04:51:07.109Z,101754.81
2019-01-10T04:53:36.631Z,101743.95
2019-01-10T04:56:06.257Z,101758.10
2019-01-10T04:58:35.800Z,101749.09
2019-01-10T05:01:05.421Z,101748.73
2019-01-10T05:03:34.975Z,101756.04
2019-01-10T05:06:04.791Z,101757.72
2019-01-10T05:08:34.331Z,101760.32
2019-01-10T05:11:03.865Z,101759.77
2019-01-10T05:13:33.409Z,101755.95
2019-01-10T05:16:02.962Z,101747.33
2019-01-10T05:18:32.528Z,101752.56
2019-01-10T05:21:02.061Z,101756.48
2019-01-10T05:23:31.638Z,101756.10
2019-01-10T05:26:01.188Z,101753.05
2019-01-10T05:28:30.725Z,101754.17
2019-01-10T05:31:00.260Z,101756.40
2019-01-10T05:33:29.809Z,101756.81
2019-01-10T05:35:59.557Z,101755.84
2019-01-10T05:38:29.195Z,101752.79
2019-01-10T05:40:58.764Z,101757.59
2019-01-10T05:43:28.306Z,101752.86
2019-01-10T05:45:57.872Z,101759.67
2019-01-10T05:48:27.406Z,101754.56
2019-01-10T05:50:57.274Z,101753.69
2019-01-10T05:53:26.830Z,101756.72
2019-01-10T05:55:56.354Z,101750.31
2019-01-10T05:58:25.893Z,101758.94
2019-01-10T06:00:55.436Z,101761.86
2019-01-10T06:03:24.978Z,101758.91
2019-01-10T06:05:54.506Z,101752.08
2019-01-10T06:08:24.058Z,101759.06
2019-01-10T06:10:53.581Z,101756.94
2019-01-10T06:13:23.141Z,101772.00
2019-01-10T06:15:52.667Z,101777.50
2019-01-10T06:18:22.195Z,101773.22
2019-01-10T06:20:51.736Z,101774.48
2019-01-10T06:23:21.290Z,101779.23
2019-01-10T06:25:50.813Z,101788.77
2019-01-10T06:28:20.376Z,101791.73
2019-01-10T06:30:49.925Z,101801.54
2019-01-10T06:33:19.447Z,101797.67
2019-01-10T06:35:51.295Z,101799.42
2019-01-10T06:38:20.835Z,101810.03
2019-01-10T06:40:50.394Z,101812.95
2019-01-10T06:43:20.183Z,101815.83
2019-01-10T06:45:50.868Z,101815.88
2019-01-10T06:48:20.416Z,101821.13
2019-01-10T06:50:49.939Z,101822.76
2019-01-10T06:53:19.477Z,101819.42
2019-01-10T06:55:49.049Z,101816.05
2019-01-10T06:58:18.566Z,101822.14
2019-01-10T07:00:48.111Z,101825.51
2019-01-10T07:03:17.663Z,101829.86
2019-01-10T07:05:47.269Z,101833.30
2019-01-10T07:08:16.816Z,101836.64
2019-01-10T07:10:46.592Z,101838.87
2019-01-10T07:13:16.172Z,101847.50
2019-01-10T07:15:45.931Z,101843.22
2019-01-10T07:18:15.421Z,101844.09
2019-01-10T07:20:44.972Z,101846.24
2019-01-10T07:23:14.499Z,101843.08
2019-01-10T07:25:44.125Z,101840.95
2019-01-10T07:28:25.471Z,101836.64
2019-01-10T07:30:56.027Z,101838.00
2019-01-10T07:33:25.618Z,101835.39
2019-01-10T07:35:58.181Z,101836.56
2019-01-10T07:38:27.672Z,101845.61
2019-01-10T07:40:57.344Z,101852.92
2019-01-10T07:43:27.158Z,101860.71
2019-01-10T07:45:57.287Z,101855.45
2019-01-10T07:48:27.020Z,101858.48
2019-01-10T07:50:56.515Z,101862.34
2019-01-10T07:53:26.318Z,101858.94
2019-01-10T07:55:58.086Z,101864.16
2019-01-10T07:58:27.618Z,101867.56
2019-01-10T08:00:57.162Z,101864.92
2019-01-10T08:03:26.723Z,101868.81
2019-01-10T08:05:56.262Z,101863.59
2019-01-10T08:08:25.985Z,101864.88
2019-01-10T08:10:55.784Z,101859.36
2019-01-10T08:13:25.316Z,101869.34
2019-01-10T08:15:54.877Z,101876.65
2019-01-10T08:18:24.420Z,101878.24
2019-01-10T08:20:53.966Z,101882.55
2019-01-10T08:23:23.504Z,101878.28
2019-01-10T08:25:53.062Z,101883.02
2019-01-10T08:28:22.599Z,101886.49
2019-01-10T08:30:52.139Z,101889.86
2019-01-10T08:33:21.690Z,101893.23
2019-01-10T08:35:51.477Z,101903.11
2019-01-10T08:38:21.041Z,101905.23
2019-01-10T08:40:51.727Z,101911.63
2019-01-10T08:43:21.287Z,101908.96
2019-01-10T08:45:50.818Z,101912.45
2019-01-10T08:48:23.420Z,101912.88
2019-01-10T08:50:52.940Z,101914.66
2019-01-10T08:53:22.467Z,101898.30
2019-01-10T08:55:52.040Z,101905.31
2019-01-10T08:58:21.565Z,101896.41
2019-01-10T09:00:51.103Z,101898.91
2019-01-10T09:03:20.660Z,101899.37
2019-01-10T09:05:51.765Z,101899.89
2019-01-10T09:08:21.312Z,101898.50
2019-01-10T09:10:50.855Z,101902.77
2019-01-10T09:13:20.387Z,101904.14
2019-01-10T09:15:49.924Z,101909.33
2019-01-10T09:18:19.455Z,101907.23
2019-01-10T09:20:49.006Z,101907.34
2019-01-10T09:23:18.593Z,101909.09
2019-01-10T09:25:48.657Z,101911.17
2019-01-10T09:28:18.178Z,101908.42
2019-01-10T09:30:48.057Z,101912.39
2019-01-10T09:33:17.605Z,101917.61
2019-01-10T09:35:48.435Z,101920.23
2019-01-10T09:38:17.951Z,101919.77
2019-01-10T09:40:47.491Z,101925.00
2019-01-10T09:43:17.026Z,101928.52
2019-01-10T09:45:46.553Z,101928.55
2019-01-10T09:48:16.141Z,101930.25
2019-01-10T09:50:45.669Z,101929.73
2019-01-10T09:53:15.248Z,101933.17
2019-01-10T09:55:44.789Z,101931.95
2019-01-10T09:58:14.665Z,101936.27
2019-01-10T10:00:44.215Z,101940.17
2019-01-10T10:03:13.733Z,101943.17
2019-01-10T10:05:43.291Z,101940.98
2019-01-10T10:08:12.835Z,101947.91
2019-01-10T10:10:42.390Z,101940.11
2019-01-10T10:13:11.935Z,101941.42
2019-01-10T10:15:41.470Z,101943.66
2019-01-10T10:18:10.998Z,101945.84
2019-01-10T10:20:40.547Z,101951.06
2019-01-10T10:23:10.153Z,101950.58
2019-01-10T10:25:39.767Z,101947.63
2019-01-10T10:28:09.345Z,101948.07
2019-01-10T10:30:38.895Z,101946.81
2019-01-10T10:33:08.439Z,101945.05
2019-01-10T10:35:37.983Z,101947.59
2019-01-10T10:38:07.510Z,101944.23
2019-01-10T10:40:37.089Z,101945.63
2019-01-10T10:43:06.629Z,101946.02
2019-01-10T10:45:36.167Z,101950.75
2019-01-10T10:48:07.075Z,101950.00
2019-01-10T10:50:37.871Z,101946.10
2019-01-10T10:53:08.666Z,101944.93
2019-01-10T10:55:38.675Z,101953.08
2019-01-10T10:58:08.882Z,101951.46
2019-01-10T11:00:39.164Z,101950.95
2019-01-10T11:03:09.028Z,101948.34
2019-01-10T11:05:39.143Z,101947.63
2019-01-10T11:08:08.685Z,101940.34
2019-01-10T11:10:38.236Z,101940.01
2019-01-10T11:13:07.853Z,101946.06
2019-01-10T11:15:37.391Z,101943.95
2019-01-10T11:18:07.064Z,101940.52
2019-01-10T11:20:36.599Z,101940.52
2019-01-10T11:23:10.790Z,101936.62
2019-01-10T11:25:38.035Z,101937.47
2019-01-10T11:28:07.636Z,101939.61
2019-01-10T11:30:37.163Z,101937.52
2019-01-10T11:33:06.762Z,101937.11
2019-01-10T11:35:36.288Z,101938.89
2019-01-10T11:38:05.835Z,101923.84
2019-01-10T11:40:35.373Z,101926.38
2019-01-10T11:43:04.965Z,101919.11
2019-01-10T11:45:34.506Z,101925.58
2019-01-10T11:48:04.033Z,101926.00
2019-01-10T11:50:33.587Z,101923.45
2019-01-10T11:53:03.118Z,101924.78
2019-01-10T11:55:32.673Z,101917.48
2019-01-10T11:58:02.193Z,101913.14
2019-01-10T12:00:31.924Z,101914.84
2019-01-10T12:03:01.472Z,101916.55
2019-01-10T12:05:31.015Z,101914.77
2019-01-10T12:08:01.308Z,101909.61
2019-01-10T12:10:32.691Z,101915.09
2019-01-10T12:13:02.616Z,101920.22
2019-01-10T12:15:32.240Z,101918.47
2019-01-10T12:18:01.787Z,101913.41
2019-01-10T12:20:31.318Z,101913.83
2019-01-10T12:23:00.870Z,101911.72
2019-01-10T12:25:30.411Z,101913.80
2019-01-10T12:27:59.953Z,101908.18
2019-01-10T12:30:29.497Z,101906.94
2019-01-10T12:32:59.030Z,101904.33
2019-01-10T12:35:28.557Z,101895.39
2019-01-10T12:37:58.081Z,101895.46
2019-01-10T12:40:27.651Z,101892.48
2019-01-10T12:42:57.185Z,101887.27
2019-01-10T12:45:26.825Z,101885.46
2019-01-10T12:47:56.355Z,101883.70
2019-01-10T12:50:29.136Z,101889.70
2019-01-10T12:52:58.855Z,101886.30
2019-01-10T12:55:28.400Z,101892.78
2019-01-10T12:57:57.963Z,101888.02
2019-01-10T13:00:27.538Z,101887.22
2019-01-10T13:02:57.667Z,101883.76
2019-01-10T13:05:27.334Z,101884.66
2019-01-10T13:08:03.321Z,101887.25
2019-01-10T13:10:28.158Z,101885.13
2019-01-10T13:12:57.741Z,101894.61
2019-01-10T13:15:27.611Z,101896.31
2019-01-10T13:17:57.147Z,101894.98
2019-01-10T13:20:26.762Z,101897.11
2019-01-10T13:22:56.312Z,101888.10
2019-01-10T13:25:25.935Z,101898.89
2019-01-10T13:27:57.196Z,101895.06
2019-01-10T13:30:30.175Z,101887.35
2019-01-10T13:33:00.389Z,101889.95
2019-01-10T13:35:29.888Z,101890.80
2019-01-10T13:37:59.543Z,101890.38
2019-01-10T13:40:29.161Z,101887.41
2019-01-10T13:42:58.696Z,101889.09
2019-01-10T13:45:28.373Z,101889.08
2019-01-10T13:48:00.122Z,101890.38
2019-01-10T13:50:29.940Z,101892.06
2019-01-10T13:52:59.491Z,101892.00
2019-01-10T13:55:29.161Z,101904.89
2019-01-10T13:57:58.870Z,101904.89
2019-01-10T14:00:35.378Z,101895.45
2019-01-10T14:03:01.599Z,101899.36
2019-01-10T14:05:31.283Z,101901.52
2019-01-10T14:08:00.813Z,101906.70
2019-01-10T14:10:30.503Z,101904.50
2019-01-10T14:13:00.025Z,101908.39
2019-01-10T14:15:31.428Z,101906.70
2019-01-10T14:18:01.065Z,101896.39
2019-01-10T14:20:30.709Z,101901.50
2019-01-10T14:23:00.379Z,101904.06
2019-01-10T14:25:29.997Z,101899.36
2019-01-10T14:27:59.982Z,101904.98
2019-01-10T14:30:33.414Z,101879.98
2019-01-10T14:33:03.020Z,101890.34
2019-01-10T14:35:32.633Z,101887.33
2019-01-10T14:38:02.238Z,101884.75
2019-01-10T14:40:31.947Z,101885.61
2019-01-10T14:43:01.483Z,101889.08
2019-01-10T14:45:31.025Z,101882.63
2019-01-10T14:48:01.941Z,101888.66
2019-01-10T14:50:31.688Z,101892.90
2019-01-10T14:53:01.203Z,101886.44
2019-01-10T14:55:30.834Z,101889.86
2019-01-10T14:58:00.453Z,101893.74
2019-01-10T15:00:30.132Z,101897.61
2019-01-10T15:02:59.749Z,101894.16
2019-01-10T15:05:34.372Z,101894.59
2019-01-10T15:08:00.671Z,101895.91
2019-01-10T15:10:30.274Z,101890.73
2019-01-10T15:12:59.890Z,101892.81
2019-01-10T15:15:29.419Z,101898.77
2019-01-10T15:18:01.835Z,101902.66
2019-01-10T15:20:34.300Z,101900.99
2019-01-10T15:23:03.858Z,101904.47
2019-01-10T15:25:33.396Z,101903.22
2019-01-10T15:28:02.975Z,101908.84
2019-01-10T15:30:32.508Z,101902.39
2019-01-10T15:33:02.059Z,101901.98
2019-01-10T15:35:32.040Z,101895.13
2019-01-10T15:38:01.582Z,101887.84
2019-01-10T15:40:32.237Z,101886.52
2019-01-10T15:43:02.000Z,101896.39
2019-01-10T15:45:31.599Z,101898.50
2019-01-10T15:48:01.205Z,101899.78
2019-01-10T15:50:32.623Z,101901.94
2019-01-10T15:53:02.189Z,101904.98
2019-01-10T15:55:32.899Z,101902.82
2019-01-10T15:58:03.031Z,101912.29
2019-01-10T16:00:33.083Z,101903.67
2019-01-10T16:03:04.315Z,101908.81
2019-01-10T16:05:33.833Z,101907.11
2019-01-10T16:08:03.457Z,101908.81
2019-01-10T16:10:32.992Z,101908.81
2019-01-10T16:13:02.535Z,101903.22
2019-01-10T16:15:32.080Z,101907.51
2019-01-10T16:18:01.635Z,101907.97
2019-01-10T16:20:31.180Z,101906.23
2019-01-10T16:23:00.721Z,101907.11
2019-01-10T16:25:30.269Z,101902.81
2019-01-10T16:27:59.868Z,101906.25
2019-01-10T16:30:29.743Z,101896.38
2019-01-10T16:32:59.372Z,101905.41
2019-01-10T16:35:28.904Z,101902.81
2019-01-10T16:37:58.455Z,101899.78
2019-01-10T16:40:27.993Z,101900.25
2019-01-10T16:42:57.560Z,101904.53
2019-01-10T16:45:28.567Z,101903.25
2019-01-10T16:47:58.089Z,101901.94
2019-01-10T16:50:27.681Z,101908.81
2019-01-10T16:52:57.304Z,101901.52
2019-01-10T16:55:26.848Z,101906.70
2019-01-10T16:57:57.903Z,101909.72
2019-01-10T17:00:32.767Z,101906.27
2019-01-10T17:03:02.286Z,101899.38
2019-01-10T17:05:31.972Z,101904.94
2019-01-10T17:08:01.520Z,101898.05
2019-01-10T17:10:31.078Z,101905.80
2019-01-10T17:13:00.613Z,101910.95
2019-01-10T17:15:30.147Z,101910.11
2019-01-10T17:17:59.713Z,101914.41
2019-01-10T17:20:29.250Z,101913.09
2019-01-10T17:22:58.846Z,101911.39
2019-01-10T17:25:28.483Z,101905.34
2019-01-10T17:27:58.000Z,101906.20
2019-01-10T17:30:29.291Z,101908.80
2019-01-10T17:32:59.013Z,101912.68
2019-01-10T17:35:31.071Z,101907.93
2019-01-10T17:38:00.677Z,101911.41
2019-01-10T17:40:30.331Z,101907.53
2019-01-10T17:43:00.200Z,101915.69
2019-01-10T17:45:32.517Z,101906.20
2019-01-10T17:48:02.315Z,101912.25
2019-01-10T17:50:31.920Z,101917.83
2019-01-10T17:53:01.548Z,101917.41
2019-01-10T17:55:31.929Z,101915.28
2019-01-10T17:58:02.825Z,101915.70
2019-01-10T18:00:32.353Z,101913.52
2019-01-10T18:03:01.879Z,101914.81
2019-01-10T18:05:32.508Z,101914.36
2019-01-10T18:08:02.010Z,101917.39
2019-01-10T18:10:31.547Z,101911.80
2019-01-10T18:13:01.083Z,101913.52
2019-01-10T18:15:31.624Z,101912.23
2019-01-10T18:18:01.251Z,101916.53
2019-01-10T18:20:36.879Z,101910.52
2019-01-10T18:23:06.755Z,101912.25
2019-01-10T18:25:36.290Z,101913.54
2019-01-10T18:28:06.395Z,101912.70
2019-01-10T18:30:35.926Z,101910.55
2019-01-10T18:33:06.194Z,101909.70
2019-01-10T18:35:36.422Z,101911.00
2019-01-10T18:38:06.105Z,101907.11
2019-01-10T18:40:35.659Z,101914.89
2019-01-10T18:43:05.403Z,101908.84
2019-01-10T18:45:35.094Z,101909.72
2019-01-10T18:48:04.846Z,101904.13
2019-01-10T18:50:34.408Z,101902.41
2019-01-10T18:53:04.031Z,101905.00
2019-01-10T18:55:33.563Z,101911.05
2019-01-10T18:58:03.110Z,101907.14
2019-01-10T19:00:32.709Z,101903.69
2019-01-10T19:03:02.313Z,101906.69
2019-01-10T19:05:32.150Z,101906.67
2019-01-10T19:08:01.699Z,101911.02
2019-01-10T19:10:31.272Z,101909.28
2019-01-10T19:13:00.800Z,101904.13
2019-01-10T19:15:30.438Z,101908.02
2019-01-10T19:18:03.555Z,101909.73
2019-01-10T19:20:31.272Z,101909.30
2019-01-10T19:23:00.905Z,101907.55
2019-01-10T19:25:30.447Z,101904.52
2019-01-10T19:28:00.030Z,101904.95
2019-01-10T19:30:30.912Z,101901.54
2019-01-10T19:33:01.328Z,101904.13
2019-01-10T19:35:31.034Z,101908.00
2019-01-10T19:38:01.565Z,101902.39
2019-01-10T19:40:31.170Z,101908.00
2019-01-10T19:43:00.701Z,101911.88
2019-01-10T19:45:30.272Z,101905.88
2019-01-10T19:47:59.834Z,101906.76
2019-01-10T19:50:29.374Z,101907.17
2019-01-10T19:52:59.225Z,101916.23
2019-01-10T19:55:28.853Z,101915.78
2019-01-10T19:57:58.733Z,101917.47
2019-01-10T20:00:35.217Z,101912.34
2019-01-10T20:03:05.037Z,101913.22
2019-01-10T20:05:34.581Z,101918.84
2019-01-10T20:08:04.254Z,101914.09
2019-01-10T20:10:33.809Z,101914.51
2019-01-10T20:13:03.400Z,101920.54
2019-01-10T20:15:32.960Z,101921.86
2019-01-10T20:18:02.508Z,101913.66
2019-01-10T20:20:38.020Z,101915.39
2019-01-10T20:23:09.691Z,101920.97
2019-01-10T20:25:39.969Z,101920.97
2019-01-10T20:28:10.083Z,101918.37
2019-01-10T20:30:42.382Z,101923.11
2019-01-10T20:33:13.152Z,101925.67
2019-01-10T20:35:43.759Z,101916.18
2019-01-10T20:38:14.558Z,101923.53
2019-01-10T20:40:44.893Z,101921.79
2019-01-10T20:43:15.762Z,101915.72
2019-01-10T20:45:46.607Z,101915.27
2019-01-10T20:48:22.424Z,101918.75
2019-01-10T20:50:49.770Z,101917.04
2019-01-10T20:53:20.672Z,101920.48
2019-01-10T20:55:51.319Z,101925.64
2019-01-10T20:58:22.668Z,101911.87
2019-01-10T21:00:54.355Z,101923.52
2019-01-10T21:03:24.824Z,101926.55
2019-01-10T21:05:55.470Z,101920.95
2019-01-10T21:08:27.834Z,101925.72
2019-01-10T21:11:02.265Z,101924.84
2019-01-10T21:13:32.860Z,101923.15
2019-01-10T21:16:03.961Z,101917.11
2019-01-10T21:18:34.734Z,101911.95
2019-01-10T21:21:05.423Z,101909.80
2019-01-10T21:23:35.879Z,101910.25
2019-01-10T21:26:06.706Z,101905.91
2019-01-10T21:28:37.463Z,101901.20
2019-01-10T21:31:09.002Z,101899.88
2019-01-10T21:33:39.646Z,101901.59
2019-01-10T21:36:10.459Z,101899.03
2019-01-10T21:38:41.272Z,101908.92
2019-01-10T21:41:13.033Z,101918.41
2019-01-10T21:43:43.712Z,101919.27
2019-01-10T21:46:17.212Z,101914.13
2019-01-10T21:48:47.806Z,101911.95
2019-01-10T21:51:18.010Z,101917.55
2019-01-10T21:53:49.664Z,101915.39
2019-01-10T21:56:20.035Z,101914.51
2019-01-10T21:58:50.010Z,101910.22
2019-01-10T22:01:23.535Z,101916.69
2019-01-10T22:03:53.608Z,101918.84
2019-01-10T22:06:23.280Z,101917.53
2019-01-10T22:08:53.429Z,101913.22
2019-01-10T22:11:24.762Z,101905.47
2019-01-10T22:13:55.072Z,101909.37
2019-01-10T22:16:25.640Z,101896.02
2019-01-10T22:18:56.057Z,101897.75
2019-01-10T22:21:25.683Z,101888.71
2019-01-10T22:23:55.581Z,101888.70
2019-01-10T22:26:25.554Z,101896.89
2019-01-10T22:28:55.115Z,101899.90
2019-01-10T22:31:24.886Z,101898.19
2019-01-10T22:33:55.996Z,101890.84
2019-01-10T22:36:25.574Z,101898.55
2019-01-10T22:38:55.114Z,101887.80
2019-01-10T22:41:24.662Z,101885.20
2019-01-10T22:43:54.211Z,101894.24
2019-01-10T22:46:23.770Z,101888.21
2019-01-10T22:48:53.444Z,101890.80
2019-01-10T22:51:22.969Z,101889.06
2019-01-10T22:53:52.688Z,101894.23
2019-01-10T22:56:22.243Z,101886.89
2019-01-10T22:58:51.758Z,101886.05
2019-01-10T23:01:25.912Z,101884.30
2019-01-10T23:03:55.498Z,101884.73
2019-01-10T23:06:25.126Z,101886.41
2019-01-10T23:08:54.661Z,101891.50
2019-01-10T23:11:24.559Z,101883.34
2019-01-10T23:13:56.616Z,101882.48
2019-01-10T23:16:26.146Z,101873.38
2019-01-10T23:18:55.741Z,101875.98
2019-01-10T23:21:25.428Z,101870.39
2019-01-10T23:24:00.920Z,101869.12
2019-01-10T23:26:30.451Z,101875.58
2019-01-10T23:28:59.998Z,101869.14
2019-01-10T23:31:29.530Z,101863.98
2019-01-10T23:34:03.856Z,101873.86
2019-01-10T23:36:33.512Z,101863.12
2019-01-10T23:39:15.038Z,101866.54
2019-01-10T23:41:44.583Z,101863.55
2019-01-10T23:44:14.211Z,101867.45
2019-01-10T23:46:43.887Z,101864.88
2019-01-10T23:49:13.423Z,101860.16
2019-01-10T23:51:43.190Z,101855.02
2019-01-10T23:54:12.859Z,101862.29
2019-01-10T23:56:42.473Z,101863.16
2019-01-10T23:59:12.008Z,101865.31
